createdAt,value
2019-06-01T00:01:20.748Z,100799.86
2019-06-01T00:04:25.588Z,100801.10
2019-06-01T00:07:28.833Z,100797.42
2019-06-01T00:10:31.737Z,100799.95
2019-06-01T00:13:35.357Z,100797.80
2019-06-01T00:16:39.968Z,100792.22
2019-06-01T00:19:44.023Z,100791.09
2019-06-01T00:22:47.514Z,100794.91
2019-06-01T00:25:50.616Z,100790.81
2019-06-01T00:28:53.957Z,100784.31
2019-06-01T00:31:57.825Z,100785.52
2019-06-01T00:35:00.881Z,100783.73
2019-06-01T00:38:03.919Z,100782.52
2019-06-01T00:41:07.588Z,100783.94
2019-06-01T00:44:11.307Z,100783.63
2019-06-01T00:47:14.942Z,100779.80
2019-06-01T00:50:18.609Z,100781.41
2019-06-01T00:53:22.068Z,100783.58
2019-06-01T00:56:25.091Z,100787.74
2019-06-01T00:59:28.352Z,100786.34
2019-06-01T01:02:31.604Z,100776.52
2019-06-01T01:05:34.824Z,100785.52
2019-06-01T01:08:38.440Z,100778.41
2019-06-01T01:11:41.380Z,100791.91
2019-06-01T01:14:45.146Z,100791.09
2019-06-01T01:17:49.788Z,100791.50
2019-06-01T01:20:54.193Z,100788.05
2019-06-01T01:23:57.210Z,100793.37
2019-06-01T01:27:00.135Z,100788.60
2019-06-01T01:30:05.030Z,100793.10
2019-06-01T01:33:08.943Z,100792.63
2019-06-01T01:36:12.159Z,100793.19
2019-06-01T01:39:15.156Z,100789.92
2019-06-01T01:42:18.688Z,100784.28
2019-06-01T01:45:21.732Z,100783.12
2019-06-01T01:48:25.264Z,100782.63
2019-06-01T01:51:28.642Z,100777.84
2019-06-01T01:54:31.653Z,100775.72
2019-06-01T01:57:34.862Z,100779.05
2019-06-01T02:00:44.110Z,100769.70
2019-06-01T02:03:47.340Z,100767.09
2019-06-01T02:06:50.389Z,100770.31
2019-06-01T02:09:53.630Z,100766.52
2019-06-01T02:12:57.517Z,100764.02
2019-06-01T02:16:02.445Z,100759.76
2019-06-01T02:19:05.669Z,100769.81
2019-06-01T02:22:09.261Z,100769.41
2019-06-01T02:25:12.283Z,100763.13
2019-06-01T02:28:15.901Z,100763.69
2019-06-01T02:31:19.141Z,100762.53
2019-06-01T02:34:22.061Z,100766.40
2019-06-01T02:37:25.292Z,100765.16
2019-06-01T02:40:28.688Z,100759.48
2019-06-01T02:43:31.932Z,100761.38
2019-06-01T02:46:35.996Z,100759.54
2019-06-01T02:49:39.339Z,100754.05
2019-06-01T02:52:42.730Z,100753.78
2019-06-01T02:55:46.005Z,100757.23
2019-06-01T02:58:48.937Z,100751.33
2019-06-01T03:01:57.425Z,100755.16
2019-06-01T03:04:59.047Z,100757.64
2019-06-01T03:08:03.457Z,100762.77
2019-06-01T03:11:10.406Z,100764.12
2019-06-01T03:14:13.655Z,100754.70
2019-06-01T03:17:21.052Z,100756.96
2019-06-01T03:20:26.946Z,100756.89
2019-06-01T03:23:33.744Z,100749.46
2019-06-01T03:26:45.016Z,100746.72
2019-06-01T03:29:55.912Z,100750.75
2019-06-01T03:33:01.036Z,100762.53
2019-06-01T03:36:04.994Z,100764.59
2019-06-01T03:39:08.284Z,100762.08
2019-06-01T03:42:11.729Z,100762.49
2019-06-01T03:45:14.795Z,100762.27
2019-06-01T03:48:18.056Z,100755.03
2019-06-01T03:51:21.319Z,100757.14
2019-06-01T03:54:24.764Z,100756.45
2019-06-01T03:57:28.075Z,100752.63
2019-06-01T04:00:31.375Z,100745.94
2019-06-01T04:03:34.280Z,100746.56
2019-06-01T04:06:38.038Z,100750.92
2019-06-01T04:09:41.532Z,100750.33
2019-06-01T04:12:45.219Z,100746.03
2019-06-01T04:15:48.436Z,100754.88
2019-06-01T04:18:51.722Z,100752.02
2019-06-01T04:21:54.983Z,100752.58
2019-06-01T04:24:58.220Z,100755.34
2019-06-01T04:28:02.154Z,100752.30
2019-06-01T04:31:06.491Z,100753.18
2019-06-01T04:34:11.014Z,100757.89
2019-06-01T04:37:14.036Z,100756.50
2019-06-01T04:40:17.563Z,100760.14
2019-06-01T04:43:20.870Z,100770.39
2019-06-01T04:46:23.759Z,100771.05
2019-06-01T04:49:26.693Z,100776.86
2019-06-01T04:52:30.209Z,100770.66
2019-06-01T04:55:33.437Z,100768.25
2019-06-01T04:58:37.030Z,100773.36
2019-06-01T05:01:40.344Z,100769.81
2019-06-01T05:04:43.720Z,100769.22
2019-06-01T05:07:47.024Z,100765.09
2019-06-01T05:10:49.958Z,100771.48
2019-06-01T05:13:53.196Z,100769.02
2019-06-01T05:16:56.807Z,100766.23
2019-06-01T05:20:00.108Z,100762.32
2019-06-01T05:23:03.815Z,100756.38
2019-06-01T05:26:07.149Z,100758.77
2019-06-01T05:29:11.678Z,100752.89
2019-06-01T05:32:15.024Z,100754.44
2019-06-01T05:35:18.531Z,100751.72
2019-06-01T05:38:21.459Z,100749.80
2019-06-01T05:41:24.775Z,100748.88
2019-06-01T05:44:28.084Z,100749.89
2019-06-01T05:47:30.988Z,100753.31
2019-06-01T05:50:33.928Z,100747.95
2019-06-01T05:53:37.687Z,100744.14
2019-06-01T05:56:40.988Z,100741.38
2019-06-01T05:59:43.949Z,100741.06
2019-06-01T06:02:47.201Z,100744.67
2019-06-01T06:05:50.495Z,100743.62
2019-06-01T06:08:53.761Z,100744.28
2019-06-01T06:11:56.692Z,100737.61
2019-06-01T06:14:59.636Z,100743.44
2019-06-01T06:18:03.037Z,100738.27
2019-06-01T06:21:05.973Z,100741.56
2019-06-01T06:24:09.178Z,100737.97
2019-06-01T06:27:12.506Z,100737.99
2019-06-01T06:30:15.545Z,100743.11
2019-06-01T06:33:19.355Z,100743.49
2019-06-01T06:36:22.496Z,100751.52
2019-06-01T06:39:25.814Z,100751.27
2019-06-01T06:42:29.827Z,100756.26
2019-06-01T06:45:33.001Z,100762.41
2019-06-01T06:48:35.936Z,100762.47
2019-06-01T06:51:38.859Z,100765.06
2019-06-01T06:54:41.836Z,100762.97
2019-06-01T06:57:44.770Z,100769.30
2019-06-01T07:00:48.350Z,100770.94
2019-06-01T07:03:51.304Z,100768.26
2019-06-01T07:06:54.568Z,100768.70
2019-06-01T07:09:57.475Z,100766.66
2019-06-01T07:13:00.819Z,100765.26
2019-06-01T07:16:04.052Z,100765.43
2019-06-01T07:19:07.548Z,100769.16
2019-06-01T07:22:10.949Z,100774.16
2019-06-01T07:25:13.981Z,100773.69
2019-06-01T07:28:17.558Z,100771.25
2019-06-01T07:31:20.475Z,100773.66
2019-06-01T07:34:35.829Z,100775.98
2019-06-01T07:37:29.216Z,100766.20
2019-06-01T07:40:33.017Z,100773.31
2019-06-01T07:43:36.100Z,100772.72
2019-06-01T07:46:40.770Z,100767.94
2019-06-01T07:49:44.060Z,100759.87
2019-06-01T07:52:47.321Z,100758.38
2019-06-01T07:55:50.283Z,100760.99
2019-06-01T07:58:53.497Z,100760.23
2019-06-01T08:01:57.178Z,100764.67
2019-06-01T08:05:00.495Z,100761.58
2019-06-01T08:08:03.423Z,100754.70
2019-06-01T08:11:06.351Z,100760.34
2019-06-01T08:14:09.600Z,100765.43
2019-06-01T08:17:13.939Z,100757.83
2019-06-01T08:20:16.981Z,100762.55
2019-06-01T08:23:20.227Z,100760.59
2019-06-01T08:26:24.421Z,100758.84
2019-06-01T08:29:28.845Z,100761.39
2019-06-01T08:32:32.911Z,100760.45
2019-06-01T08:35:36.340Z,100752.84
2019-06-01T08:38:39.562Z,100757.62
2019-06-01T08:41:42.485Z,100749.48
2019-06-01T08:44:46.063Z,100754.45
2019-06-01T08:47:49.018Z,100750.59
2019-06-01T08:50:51.932Z,100758.05
2019-06-01T08:53:54.925Z,100754.48
2019-06-01T08:56:58.212Z,100757.28
2019-06-01T09:00:01.126Z,100747.23
2019-06-01T09:03:04.073Z,100744.77
2019-06-01T09:06:07.007Z,100746.64
2019-06-01T09:09:11.878Z,100743.47
2019-06-01T09:12:14.833Z,100747.34
2019-06-01T09:15:17.967Z,100747.11
2019-06-01T09:18:20.888Z,100740.69
2019-06-01T09:21:25.311Z,100745.19
2019-06-01T09:24:29.766Z,100747.73
2019-06-01T09:27:33.939Z,100741.42
2019-06-01T09:30:36.983Z,100742.03
2019-06-01T09:33:39.917Z,100741.66
2019-06-01T09:36:42.899Z,100739.56
2019-06-01T09:39:46.571Z,100740.48
2019-06-01T09:42:49.883Z,100735.16
2019-06-01T09:45:53.739Z,100742.34
2019-06-01T09:48:57.053Z,100733.53
2019-06-01T09:52:00.718Z,100734.78
2019-06-01T09:55:04.199Z,100736.02
2019-06-01T09:58:07.411Z,100734.48
2019-06-01T10:01:10.675Z,100730.55
2019-06-01T10:04:13.640Z,100728.22
2019-06-01T10:07:17.589Z,100723.02
2019-06-01T10:10:20.782Z,100728.81
2019-06-01T10:13:24.000Z,100732.44
2019-06-01T10:16:27.311Z,100729.02
2019-06-01T10:19:30.705Z,100725.01
2019-06-01T10:22:35.108Z,100714.31
2019-06-01T10:25:38.616Z,100717.41
2019-06-01T10:28:41.995Z,100724.00
2019-06-01T10:31:45.382Z,100715.77
2019-06-01T10:34:48.647Z,100718.89
2019-06-01T10:37:51.925Z,100710.41
2019-06-01T10:40:54.873Z,100707.02
2019-06-01T10:43:58.191Z,100706.48
2019-06-01T10:47:01.121Z,100708.02
2019-06-01T10:50:04.946Z,100711.16
2019-06-01T10:53:07.881Z,100704.37
2019-06-01T10:56:10.919Z,100697.26
2019-06-01T10:59:13.959Z,100700.45
2019-06-01T11:02:16.976Z,100695.14
2019-06-01T11:05:20.312Z,100703.10
2019-06-01T11:08:23.476Z,100697.73
2019-06-01T11:11:26.816Z,100699.27
2019-06-01T11:14:30.007Z,100695.13
2019-06-01T11:17:32.961Z,100691.42
2019-06-01T11:20:37.318Z,100699.09
2019-06-01T11:23:46.609Z,100686.84
2019-06-01T11:26:51.981Z,100677.84
2019-06-01T11:29:55.674Z,100678.26
2019-06-01T11:32:59.021Z,100678.50
2019-06-01T11:36:01.914Z,100682.02
2019-06-01T11:39:06.836Z,100684.17
2019-06-01T11:42:09.871Z,100674.73
2019-06-01T11:45:12.886Z,100681.73
2019-06-01T11:48:16.160Z,100672.73
2019-06-01T11:51:19.074Z,100672.70
2019-06-01T11:54:22.734Z,100658.66
2019-06-01T11:57:25.963Z,100667.59
2019-06-01T12:00:28.916Z,100661.09
2019-06-01T12:03:32.179Z,100665.70
2019-06-01T12:06:35.873Z,100654.66
2019-06-01T12:09:39.916Z,100660.59
2019-06-01T12:12:44.217Z,100656.42
2019-06-01T12:15:47.723Z,100657.84
2019-06-01T12:18:51.909Z,100652.92
2019-06-01T12:21:55.178Z,100654.96
2019-06-01T12:24:58.427Z,100633.58
2019-06-01T12:28:01.664Z,100634.54
2019-06-01T12:31:05.285Z,100631.58
2019-06-01T12:34:08.555Z,100630.47
2019-06-01T12:37:11.809Z,100629.36
2019-06-01T12:40:15.093Z,100626.89
2019-06-01T12:43:18.100Z,100627.53
2019-06-01T12:46:21.358Z,100619.16
2019-06-01T12:49:24.686Z,100617.45
2019-06-01T12:52:27.950Z,100618.92
2019-06-01T12:55:31.221Z,100615.78
2019-06-01T12:58:34.439Z,100619.16
2019-06-01T13:01:38.456Z,100604.84
2019-06-01T13:04:42.778Z,100599.50
2019-06-01T13:07:57.771Z,100605.44
2019-06-01T13:10:51.953Z,100596.20
2019-06-01T13:13:55.645Z,100590.88
2019-06-01T13:17:07.013Z,100587.74
2019-06-01T13:20:04.700Z,100589.67
2019-06-01T13:23:07.995Z,100585.59
2019-06-01T13:26:11.577Z,100584.62
2019-06-01T13:29:14.526Z,100584.96
2019-06-01T13:32:18.132Z,100584.77
2019-06-01T13:35:21.169Z,100576.48
2019-06-01T13:38:24.087Z,100565.02
2019-06-01T13:41:27.033Z,100576.05
2019-06-01T13:44:30.557Z,100572.63
2019-06-01T13:47:33.825Z,100569.14
2019-06-01T13:50:37.120Z,100561.94
2019-06-01T13:53:40.035Z,100554.03
2019-06-01T13:56:44.614Z,100553.85
2019-06-01T13:59:48.785Z,100562.85
2019-06-01T14:02:55.544Z,100551.67
2019-06-01T14:05:56.727Z,100547.23
2019-06-01T14:08:59.671Z,100540.18
2019-06-01T14:12:02.627Z,100542.08
2019-06-01T14:15:05.777Z,100534.31
2019-06-01T14:18:09.044Z,100540.66
2019-06-01T14:21:12.307Z,100542.02
2019-06-01T14:24:15.266Z,100537.53
2019-06-01T14:27:18.187Z,100534.73
2019-06-01T14:30:24.019Z,100530.77
2019-06-01T14:33:26.368Z,100527.82
2019-06-01T14:36:29.291Z,100527.84
2019-06-01T14:39:32.781Z,100521.51
2019-06-01T14:42:35.793Z,100524.72
2019-06-01T14:45:38.726Z,100521.24
2019-06-01T14:48:41.977Z,100516.91
2019-06-01T14:51:45.262Z,100522.38
2019-06-01T14:54:49.546Z,100515.40
2019-06-01T14:57:53.981Z,100518.77
2019-06-01T15:00:58.538Z,100510.80
2019-06-01T15:04:02.000Z,100503.84
2019-06-01T15:07:05.296Z,100511.87
2019-06-01T15:10:09.456Z,100507.89
2019-06-01T15:13:13.072Z,100510.05
2019-06-01T15:16:16.658Z,100504.48
2019-06-01T15:19:20.296Z,100499.41
2019-06-01T15:22:23.612Z,100496.94
2019-06-01T15:25:26.553Z,100500.05
2019-06-01T15:28:29.769Z,100493.17
2019-06-01T15:31:33.053Z,100492.33
2019-06-01T15:34:37.673Z,100501.22
2019-06-01T15:37:40.601Z,100496.00
2019-06-01T15:40:44.277Z,100487.84
2019-06-01T15:43:47.581Z,100486.21
2019-06-01T15:46:51.533Z,100481.70
2019-06-01T15:49:55.751Z,100479.97
2019-06-01T15:52:59.400Z,100478.41
2019-06-01T15:56:03.523Z,100485.95
2019-06-01T15:59:06.591Z,100477.58
2019-06-01T16:02:10.357Z,100475.27
2019-06-01T16:05:15.112Z,100474.25
2019-06-01T16:08:18.654Z,100466.95
2019-06-01T16:11:21.609Z,100464.12
2019-06-01T16:14:24.546Z,100459.06
2019-06-01T16:17:27.817Z,100459.91
2019-06-01T16:20:30.867Z,100459.16
2019-06-01T16:23:48.598Z,100456.81
2019-06-01T16:26:39.794Z,100455.73
2019-06-01T16:29:43.299Z,100451.78
2019-06-01T16:32:46.625Z,100451.52
2019-06-01T16:35:50.454Z,100452.36
2019-06-01T16:38:57.946Z,100451.02
2019-06-01T16:41:59.701Z,100452.86
2019-06-01T16:45:03.822Z,100440.44
2019-06-01T16:48:06.967Z,100432.72
2019-06-01T16:51:09.891Z,100445.35
2019-06-01T16:54:12.815Z,100437.70
2019-06-01T16:57:16.108Z,100433.27
2019-06-01T17:00:20.151Z,100444.61
2019-06-01T17:03:23.827Z,100437.94
2019-06-01T17:06:27.118Z,100433.55
2019-06-01T17:09:30.048Z,100437.84
2019-06-01T17:12:33.284Z,100431.44
2019-06-01T17:15:36.573Z,100437.85
2019-06-01T17:18:39.491Z,100430.35
2019-06-01T17:21:42.764Z,100431.82
2019-06-01T17:24:45.738Z,100428.73
2019-06-01T17:27:48.655Z,100429.83
2019-06-01T17:30:52.090Z,100427.25
2019-06-01T17:33:55.105Z,100423.80
2019-06-01T17:36:58.685Z,100425.03
2019-06-01T17:40:02.533Z,100418.25
2019-06-01T17:43:06.984Z,100427.91
2019-06-01T17:46:10.191Z,100425.45
2019-06-01T17:49:13.194Z,100420.25
2019-06-01T17:52:16.601Z,100418.67
2019-06-01T17:55:31.288Z,100418.27
2019-06-01T17:58:34.338Z,100411.99
2019-06-01T18:01:37.251Z,100418.05
2019-06-01T18:04:40.547Z,100409.64
2019-06-01T18:07:44.015Z,100408.88
2019-06-01T18:10:54.548Z,100408.75
2019-06-01T18:13:52.406Z,100409.41
2019-06-01T18:16:55.952Z,100404.22
2019-06-01T18:19:58.890Z,100403.98
2019-06-01T18:23:02.499Z,100403.89
2019-06-01T18:26:07.031Z,100397.56
2019-06-01T18:29:10.746Z,100398.12
2019-06-01T18:32:13.804Z,100395.61
2019-06-01T18:35:19.669Z,100395.78
2019-06-01T18:38:21.653Z,100392.38
2019-06-01T18:41:25.248Z,100394.53
2019-06-01T18:44:29.321Z,100391.89
2019-06-01T18:47:32.803Z,100403.39
2019-06-01T18:50:35.981Z,100399.24
2019-06-01T18:53:39.014Z,100398.62
2019-06-01T18:56:42.197Z,100394.61
2019-06-01T18:59:46.226Z,100393.16
2019-06-01T19:02:49.483Z,100393.93
2019-06-01T19:05:52.761Z,100396.78
2019-06-01T19:08:55.914Z,100393.83
2019-06-01T19:12:00.191Z,100394.41
2019-06-01T19:15:05.960Z,100390.54
2019-06-01T19:18:10.444Z,100395.17
2019-06-01T19:21:14.838Z,100389.72
2019-06-01T19:24:17.979Z,100395.35
2019-06-01T19:27:20.902Z,100394.91
2019-06-01T19:30:39.142Z,100390.03
2019-06-01T19:33:42.043Z,100396.36
2019-06-01T19:36:48.950Z,100392.73
2019-06-01T19:39:52.781Z,100391.80
2019-06-01T19:42:55.703Z,100388.88
2019-06-01T19:45:59.594Z,100401.92
2019-06-01T19:49:02.612Z,100403.59
2019-06-01T19:52:06.669Z,100396.58
2019-06-01T19:55:10.798Z,100398.97
2019-06-01T19:58:14.425Z,100390.70
2019-06-01T20:01:18.399Z,100397.89
2019-06-01T20:04:21.451Z,100387.87
2019-06-01T20:07:25.993Z,100402.03
2019-06-01T20:10:29.613Z,100401.68
2019-06-01T20:13:32.559Z,100401.70
2019-06-01T20:16:35.489Z,100400.16
2019-06-01T20:19:38.788Z,100396.77
2019-06-01T20:22:42.053Z,100393.53
2019-06-01T20:25:45.328Z,100392.73
2019-06-01T20:28:48.260Z,100392.47
2019-06-01T20:31:51.390Z,100393.66
2019-06-01T20:34:55.798Z,100395.88
2019-06-01T20:37:58.738Z,100384.80
2019-06-01T20:41:02.356Z,100383.92
2019-06-01T20:44:05.778Z,100387.72
2019-06-01T20:47:09.134Z,100386.50
2019-06-01T20:50:12.729Z,100385.02
2019-06-01T20:53:16.901Z,100379.45
2019-06-01T20:56:19.837Z,100376.95
2019-06-01T20:59:24.536Z,100378.98
2019-06-01T21:02:28.280Z,100381.30
2019-06-01T21:05:31.496Z,100379.03
2019-06-01T21:08:34.775Z,100377.69
2019-06-01T21:11:37.700Z,100381.99
2019-06-01T21:14:41.119Z,100387.28
2019-06-01T21:17:44.764Z,100376.81
2019-06-01T21:20:47.665Z,100376.31
2019-06-01T21:23:50.613Z,100376.96
2019-06-01T21:26:54.346Z,100374.20
2019-06-01T21:29:57.254Z,100373.98
2019-06-01T21:33:00.230Z,100377.56
2019-06-01T21:36:03.535Z,100380.26
2019-06-01T21:39:07.280Z,100379.59
2019-06-01T21:42:10.657Z,100373.91
2019-06-01T21:45:15.503Z,100371.02
2019-06-01T21:48:19.732Z,100365.69
2019-06-01T21:51:23.906Z,100368.36
2019-06-01T21:54:26.988Z,100368.44
2019-06-01T21:57:30.278Z,100367.27
2019-06-01T22:00:37.141Z,100363.72
2019-06-01T22:03:40.366Z,100362.73
2019-06-01T22:06:46.313Z,100362.77
2019-06-01T22:09:48.475Z,100353.58
2019-06-01T22:12:51.742Z,100354.03
2019-06-01T22:15:55.300Z,100347.16
2019-06-01T22:18:59.656Z,100345.69
2019-06-01T22:22:02.600Z,100344.39
2019-06-01T22:25:06.351Z,100345.58
2019-06-01T22:28:09.309Z,100342.34
2019-06-01T22:31:13.200Z,100338.66
2019-06-01T22:34:16.153Z,100335.39
2019-06-01T22:37:19.889Z,100330.42
2019-06-01T22:40:23.187Z,100334.28
2019-06-01T22:43:43.401Z,100326.86
2019-06-01T22:46:32.724Z,100327.61
2019-06-01T22:49:36.223Z,100322.54
2019-06-01T22:52:39.447Z,100328.39
2019-06-01T22:55:42.831Z,100324.00
2019-06-01T22:58:46.070Z,100319.33
2019-06-01T23:01:49.640Z,100324.38
2019-06-01T23:04:52.931Z,100319.70
2019-06-01T23:07:56.158Z,100319.66
2019-06-01T23:10:59.391Z,100323.32
2019-06-01T23:14:02.395Z,100317.11
2019-06-01T23:17:05.323Z,100313.02
2019-06-01T23:20:08.943Z,100309.98
2019-06-01T23:23:12.180Z,100312.27
2019-06-01T23:26:15.537Z,100307.42
2019-06-01T23:29:19.077Z,100298.81
2019-06-01T23:32:22.399Z,100302.29
2019-06-01T23:35:26.629Z,100299.66
2019-06-01T23:38:30.820Z,100291.80
2019-06-01T23:41:33.818Z,100289.31
2019-06-01T23:44:37.845Z,100295.86
2019-06-01T23:47:40.780Z,100286.57
2019-06-01T23:50:44.039Z,100284.69
2019-06-01T23:53:47.290Z,100275.94
2019-06-01T23:56:50.564Z,100280.34
2019-06-01T23:59:53.490Z,100279.23
